createdAt,value
2018-02-25T00:01:57.560Z,94.10
2018-02-25T00:04:26.635Z,94.10
2018-02-25T00:06:55.662Z,94.20
2018-02-25T00:09:24.509Z,94.20
2018-02-25T00:11:53.308Z,93.50
2018-02-25T00:14:22.204Z,93.10
2018-02-25T00:16:51.266Z,92.50
2018-02-25T00:19:20.164Z,92.60
2018-02-25T00:21:49.261Z,92.60
2018-02-25T00:24:18.111Z,92.00
2018-02-25T00:26:47.726Z,92.50
2018-02-25T00:29:16.605Z,92.30
2018-02-25T00:31:45.545Z,91.90
2018-02-25T00:34:14.337Z,91.90
2018-02-25T00:36:43.393Z,91.60
2018-02-25T00:39:12.999Z,92.10
2018-02-25T00:41:42.029Z,92.10
2018-02-25T00:44:10.869Z,91.30
2018-02-25T00:46:39.776Z,91.60
2018-02-25T00:49:08.713Z,90.40
2018-02-25T00:51:37.488Z,90.60
2018-02-25T00:54:06.465Z,90.70
2018-02-25T00:56:35.364Z,90.60
2018-02-25T00:59:04.954Z,91.30
2018-02-25T01:01:33.857Z,91.30
2018-02-25T01:04:03.974Z,90.60
2018-02-25T01:06:32.833Z,90.60
2018-02-25T01:09:03.571Z,90.20
2018-02-25T01:11:32.549Z,90.20
2018-02-25T01:14:01.911Z,90.40
2018-02-25T01:16:30.729Z,87.60
2018-02-25T01:18:59.612Z,88.50
2018-02-25T01:21:29.371Z,89.30
2018-02-25T01:23:58.216Z,89.30
2018-02-25T01:26:27.097Z,90.10
2018-02-25T01:28:56.772Z,90.70
2018-02-25T01:31:25.896Z,90.70
2018-02-25T01:33:54.750Z,90.60
2018-02-25T01:36:24.046Z,90.70
2018-02-25T01:38:52.911Z,91.10
2018-02-25T01:41:22.211Z,91.00
2018-02-25T01:43:51.343Z,91.90
2018-02-25T01:46:21.000Z,91.40
2018-02-25T01:48:49.828Z,91.50
2018-02-25T01:51:18.707Z,91.20
2018-02-25T01:53:48.493Z,91.20
2018-02-25T01:56:18.142Z,91.20
2018-02-25T01:58:48.207Z,91.40
2018-02-25T02:01:17.052Z,91.40
2018-02-25T02:03:46.011Z,91.50
2018-02-25T02:06:14.869Z,91.40
2018-02-25T02:08:43.711Z,91.70
2018-02-25T02:11:12.524Z,91.70
2018-02-25T02:13:41.487Z,91.70
2018-02-25T02:16:10.245Z,91.50
2018-02-25T02:18:39.156Z,91.90
2018-02-25T02:21:07.916Z,91.60
2018-02-25T02:23:37.605Z,92.00
2018-02-25T02:26:06.513Z,92.00
2018-02-25T02:28:35.376Z,92.70
2018-02-25T02:31:04.407Z,91.60
2018-02-25T02:33:33.562Z,92.40
2018-02-25T02:36:02.380Z,92.40
2018-02-25T02:38:31.275Z,92.40
2018-02-25T02:41:00.419Z,92.40
2018-02-25T02:43:29.408Z,92.40
2018-02-25T02:45:58.170Z,92.10
2018-02-25T02:48:28.174Z,92.50
2018-02-25T02:50:57.233Z,92.40
2018-02-25T02:53:26.337Z,93.20
2018-02-25T02:55:55.402Z,93.60
2018-02-25T02:58:24.394Z,94.00
2018-02-25T03:00:53.208Z,94.30
2018-02-25T03:03:22.774Z,94.60
2018-02-25T03:05:52.381Z,94.60
2018-02-25T03:08:21.145Z,94.60
2018-02-25T03:10:50.233Z,94.60
2018-02-25T03:13:19.086Z,94.30
2018-02-25T03:15:47.998Z,94.10
2018-02-25T03:18:16.817Z,94.50
2018-02-25T03:20:45.677Z,94.20
2018-02-25T03:23:14.545Z,94.30
2018-02-25T03:25:44.363Z,94.10
2018-02-25T03:28:13.921Z,94.00
2018-02-25T03:30:42.771Z,94.00
2018-02-25T03:33:11.527Z,93.50
2018-02-25T03:35:41.359Z,93.70
2018-02-25T03:38:11.023Z,93.20
2018-02-25T03:40:40.249Z,93.20
2018-02-25T03:43:09.049Z,93.20
2018-02-25T03:45:37.949Z,93.40
2018-02-25T03:48:06.968Z,93.30
2018-02-25T03:50:35.855Z,93.40
2018-02-25T03:53:04.878Z,93.40
2018-02-25T03:55:34.542Z,93.20
2018-02-25T03:58:03.362Z,93.20
2018-02-25T04:00:32.165Z,93.60
2018-02-25T04:03:01.825Z,93.40
2018-02-25T04:05:30.860Z,93.40
2018-02-25T04:08:00.014Z,93.20
2018-02-25T04:10:29.541Z,93.40
2018-02-25T04:12:58.421Z,93.40
2018-02-25T04:15:27.531Z,93.40
2018-02-25T04:17:57.238Z,93.50
2018-02-25T04:20:26.138Z,93.50
2018-02-25T04:22:55.098Z,93.10
2018-02-25T04:25:24.625Z,93.40
2018-02-25T04:27:53.450Z,93.40
2018-02-25T04:30:22.220Z,93.20
2018-02-25T04:32:51.110Z,93.00
2018-02-25T04:35:20.185Z,92.90
2018-02-25T04:37:48.998Z,93.10
2018-02-25T04:40:18.736Z,93.00
2018-02-25T04:42:47.629Z,92.90
2018-02-25T04:45:16.777Z,93.60
2018-02-25T04:47:45.624Z,93.10
2018-02-25T04:50:14.710Z,93.20
2018-02-25T04:52:43.548Z,93.00
2018-02-25T04:55:13.225Z,92.00
2018-02-25T04:57:43.250Z,92.60
2018-02-25T05:00:12.390Z,92.60
2018-02-25T05:02:42.049Z,93.10
2018-02-25T05:05:11.055Z,93.10
2018-02-25T05:07:40.861Z,93.90
2018-02-25T05:10:10.476Z,93.90
2018-02-25T05:12:39.355Z,93.60
2018-02-25T05:15:08.946Z,93.50
2018-02-25T05:17:38.826Z,93.50
2018-02-25T05:20:08.473Z,93.80
2018-02-25T05:22:37.495Z,93.80
2018-02-25T05:25:07.350Z,93.20
2018-02-25T05:27:36.198Z,93.20
2018-02-25T05:30:05.277Z,93.20
2018-02-25T05:32:34.246Z,93.70
2018-02-25T05:35:03.252Z,92.40
2018-02-25T05:37:32.822Z,93.10
2018-02-25T05:40:01.839Z,93.00
2018-02-25T05:42:31.494Z,93.50
2018-02-25T05:45:00.391Z,93.40
2018-02-25T05:47:29.460Z,94.10
2018-02-25T05:49:58.747Z,93.70
2018-02-25T05:52:28.446Z,93.50
2018-02-25T05:54:57.292Z,93.40
2018-02-25T05:57:26.184Z,93.30
2018-02-25T05:59:55.024Z,93.00
2018-02-25T06:02:24.021Z,92.90
2018-02-25T06:04:53.616Z,93.30
2018-02-25T06:07:22.733Z,93.30
2018-02-25T06:09:52.573Z,93.40
2018-02-25T06:12:22.639Z,93.40
2018-02-25T06:14:51.493Z,93.40
2018-02-25T06:17:21.183Z,93.60
2018-02-25T06:19:50.875Z,93.30
2018-02-25T06:22:19.793Z,93.30
2018-02-25T06:24:48.841Z,92.80
2018-02-25T06:27:17.817Z,93.50
2018-02-25T06:29:46.775Z,93.70
2018-02-25T06:32:16.505Z,93.50
2018-02-25T06:34:46.247Z,93.30
2018-02-25T06:37:15.385Z,93.40
2018-02-25T06:39:44.232Z,93.80
2018-02-25T06:42:13.141Z,93.40
2018-02-25T06:44:42.753Z,93.00
2018-02-25T06:47:11.638Z,93.00
2018-02-25T06:49:40.813Z,92.70
2018-02-25T06:52:10.506Z,92.60
2018-02-25T06:54:40.457Z,92.00
2018-02-25T06:57:10.270Z,91.60
2018-02-25T06:59:39.888Z,92.10
2018-02-25T07:02:08.764Z,91.70
2018-02-25T07:04:38.444Z,91.30
2018-02-25T07:07:07.302Z,91.30
2018-02-25T07:09:36.126Z,91.50
2018-02-25T07:12:06.032Z,90.80
2018-02-25T07:14:36.048Z,92.10
2018-02-25T07:17:05.672Z,91.20
2018-02-25T07:19:35.435Z,90.80
2018-02-25T07:22:04.473Z,90.80
2018-02-25T07:24:33.596Z,90.60
2018-02-25T07:27:03.448Z,91.10
2018-02-25T07:29:32.387Z,91.00
2018-02-25T07:32:01.935Z,91.10
2018-02-25T07:34:30.832Z,90.20
2018-02-25T07:36:59.713Z,91.00
2018-02-25T07:39:28.726Z,91.00
2018-02-25T07:41:57.611Z,90.20
2018-02-25T07:44:26.463Z,89.00
2018-02-25T07:46:56.072Z,89.10
2018-02-25T07:49:25.081Z,89.20
2018-02-25T07:51:53.936Z,88.40
2018-02-25T07:54:24.227Z,87.80
2018-02-25T07:56:53.987Z,85.80
2018-02-25T07:59:23.604Z,87.60
2018-02-25T08:01:52.933Z,87.60
2018-02-25T08:04:21.797Z,87.60
2018-02-25T08:06:50.692Z,86.20
2018-02-25T08:09:19.772Z,87.50
2018-02-25T08:11:49.436Z,80.80
2018-02-25T08:14:18.778Z,80.70
2018-02-25T08:16:47.792Z,79.00
2018-02-25T08:19:16.678Z,82.20
2018-02-25T08:21:45.596Z,82.20
2018-02-25T08:24:14.448Z,83.00
2018-02-25T08:26:43.541Z,83.60
2018-02-25T08:29:12.541Z,76.50
2018-02-25T08:31:41.496Z,77.50
2018-02-25T08:34:10.735Z,76.70
2018-02-25T08:36:39.875Z,79.30
2018-02-25T08:39:08.808Z,79.20
2018-02-25T08:41:38.374Z,79.50
2018-02-25T08:44:08.451Z,80.40
2018-02-25T08:46:37.414Z,79.60
2018-02-25T08:49:07.340Z,78.30
2018-02-25T08:51:36.906Z,75.00
2018-02-25T08:54:05.708Z,74.80
2018-02-25T08:56:34.617Z,76.10
2018-02-25T08:59:03.624Z,78.70
2018-02-25T09:01:33.266Z,74.40
2018-02-25T09:04:02.109Z,74.10
2018-02-25T09:06:31.841Z,77.20
2018-02-25T09:09:00.732Z,77.10
2018-02-25T09:11:29.736Z,74.20
2018-02-25T09:13:59.356Z,71.40
2018-02-25T09:16:28.425Z,71.30
2018-02-25T09:18:57.257Z,70.80
2018-02-25T09:21:26.144Z,71.20
2018-02-25T09:23:55.033Z,70.30
2018-02-25T09:26:24.220Z,70.70
2018-02-25T09:28:53.177Z,70.80
2018-02-25T09:31:23.001Z,69.80
2018-02-25T09:33:51.766Z,69.70
2018-02-25T09:36:20.729Z,69.20
2018-02-25T09:38:49.643Z,70.10
2018-02-25T09:41:19.810Z,69.30
2018-02-25T09:43:49.144Z,69.50
2018-02-25T09:46:18.181Z,68.50
2018-02-25T09:48:47.793Z,69.40
2018-02-25T09:51:16.901Z,69.30
2018-02-25T09:53:45.851Z,70.20
2018-02-25T09:56:15.016Z,68.90
2018-02-25T09:58:43.901Z,70.60
2018-02-25T10:01:12.838Z,69.70
2018-02-25T10:03:42.389Z,69.40
2018-02-25T10:06:12.107Z,71.00
2018-02-25T10:08:41.029Z,70.90
2018-02-25T10:11:10.007Z,69.70
2018-02-25T10:13:39.668Z,69.20
2018-02-25T10:16:09.068Z,68.60
2018-02-25T10:18:37.900Z,67.40
2018-02-25T10:21:06.766Z,68.60
2018-02-25T10:23:35.841Z,69.60
2018-02-25T10:26:05.452Z,68.50
2018-02-25T10:28:34.361Z,68.20
2018-02-25T10:31:03.426Z,69.60
2018-02-25T10:33:32.321Z,67.90
2018-02-25T10:36:01.415Z,68.50
2018-02-25T10:38:31.039Z,66.00
2018-02-25T10:41:00.865Z,67.20
2018-02-25T10:43:30.674Z,66.00
2018-02-25T10:45:59.487Z,65.90
2018-02-25T10:48:28.548Z,67.80
2018-02-25T10:50:57.664Z,68.00
2018-02-25T10:53:26.690Z,69.00
2018-02-25T10:55:55.633Z,67.50
2018-02-25T10:58:24.495Z,67.20
2018-02-25T11:01:00.939Z,66.20
2018-02-25T11:03:29.874Z,66.80
2018-02-25T11:05:58.792Z,65.10
2018-02-25T11:08:27.683Z,63.80
2018-02-25T11:10:56.854Z,65.80
2018-02-25T11:13:25.721Z,64.20
2018-02-25T11:15:54.602Z,62.60
2018-02-25T11:18:23.472Z,63.80
2018-02-25T11:20:52.358Z,64.20
2018-02-25T11:23:22.028Z,59.50
2018-02-25T11:25:51.200Z,59.50
2018-02-25T11:28:21.912Z,57.70
2018-02-25T11:30:50.780Z,57.40
2018-02-25T11:33:19.957Z,55.70
2018-02-25T11:35:49.169Z,57.20
2018-02-25T11:38:18.107Z,55.00
2018-02-25T11:40:47.028Z,57.10
2018-02-25T11:43:15.945Z,60.30
2018-02-25T11:45:44.830Z,53.30
2018-02-25T11:48:14.449Z,56.60
2018-02-25T11:50:43.288Z,56.60
2018-02-25T11:53:13.154Z,56.90
2018-02-25T11:55:42.206Z,56.90
2018-02-25T11:58:12.025Z,56.00
2018-02-25T12:00:41.041Z,56.00
2018-02-25T12:03:09.905Z,55.90
2018-02-25T12:05:39.039Z,56.70
2018-02-25T12:08:07.974Z,57.00
2018-02-25T12:10:37.604Z,55.90
2018-02-25T12:13:06.746Z,56.40
2018-02-25T12:15:35.593Z,57.20
2018-02-25T12:18:04.489Z,58.80
2018-02-25T12:20:34.191Z,58.00
2018-02-25T12:23:03.117Z,58.00
2018-02-25T12:25:32.202Z,57.70
2018-02-25T12:28:01.913Z,59.10
2018-02-25T12:30:31.784Z,57.10
2018-02-25T12:33:00.656Z,57.00
2018-02-25T12:35:29.516Z,58.40
2018-02-25T12:37:59.581Z,60.00
2018-02-25T12:40:29.241Z,59.80
2018-02-25T12:42:58.493Z,59.80
2018-02-25T12:45:28.433Z,60.30
2018-02-25T13:00:58.213Z,64.80
2018-02-25T13:03:27.843Z,62.80
2018-02-25T13:05:57.096Z,62.70
2018-02-25T13:08:27.030Z,65.00
2018-02-25T13:10:55.922Z,65.00
2018-02-25T13:13:25.843Z,64.80
2018-02-25T13:15:54.708Z,64.80
2018-02-25T13:18:24.022Z,64.20
2018-02-25T13:20:53.218Z,65.50
2018-02-25T13:23:23.062Z,64.90
2018-02-25T13:25:51.881Z,64.90
2018-02-25T13:28:21.731Z,67.60
2018-02-25T13:30:50.653Z,67.50
2018-02-25T13:33:19.562Z,68.10
2018-02-25T13:35:48.337Z,68.20
2018-02-25T13:38:17.226Z,64.90
2018-02-25T13:40:46.245Z,64.10
2018-02-25T13:43:15.408Z,61.70
2018-02-25T13:45:45.001Z,63.20
2018-02-25T13:48:14.757Z,64.10
2018-02-25T13:50:44.593Z,64.30
2018-02-25T13:53:13.455Z,64.20
2018-02-25T13:55:42.419Z,65.80
2018-02-25T13:58:12.055Z,66.70
2018-02-25T14:00:40.949Z,66.70
2018-02-25T14:03:10.965Z,64.80
2018-02-25T14:05:39.749Z,66.00
2018-02-25T14:08:09.406Z,66.80
2018-02-25T14:10:39.040Z,67.60
2018-02-25T14:13:07.933Z,66.80
2018-02-25T14:15:37.701Z,66.90
2018-02-25T14:18:07.439Z,66.70
2018-02-25T14:20:37.111Z,67.10
2018-02-25T14:23:07.205Z,67.00
2018-02-25T14:25:36.267Z,67.00
2018-02-25T14:28:05.924Z,66.80
2018-02-25T14:30:35.152Z,66.70
2018-02-25T14:33:04.130Z,67.50
2018-02-25T14:35:33.003Z,66.20
2018-02-25T14:38:01.840Z,67.20
2018-02-25T14:40:30.890Z,66.70
2018-02-25T14:42:59.745Z,67.30
2018-02-25T14:45:28.616Z,66.70
2018-02-25T14:47:57.552Z,66.90
2018-02-25T14:50:26.783Z,67.30
2018-02-25T14:52:55.678Z,66.10
2018-02-25T14:55:24.594Z,66.50
2018-02-25T14:57:54.241Z,67.80
2018-02-25T15:00:23.053Z,67.60
2018-02-25T15:02:51.957Z,67.00
2018-02-25T15:05:20.778Z,68.00
2018-02-25T15:07:49.660Z,67.80
2018-02-25T15:10:19.369Z,67.70
2018-02-25T15:12:49.469Z,68.40
2018-02-25T15:15:19.044Z,67.60
2018-02-25T15:17:48.688Z,68.00
2018-02-25T15:20:17.586Z,67.90
2018-02-25T15:22:46.605Z,67.80
2018-02-25T15:25:16.388Z,68.10
2018-02-25T15:27:46.085Z,67.50
2018-02-25T15:30:15.931Z,68.10
2018-02-25T15:32:44.817Z,68.00
2018-02-25T15:35:14.499Z,68.60
2018-02-25T15:37:43.389Z,68.60
2018-02-25T15:40:12.274Z,68.20
2018-02-25T15:42:41.418Z,68.90
2018-02-25T15:45:10.248Z,69.50
2018-02-25T15:47:39.935Z,69.20
2018-02-25T15:50:09.624Z,70.00
2018-02-25T15:52:38.803Z,70.00
2018-02-25T15:55:07.979Z,69.80
2018-02-25T15:57:36.778Z,69.70
2018-02-25T16:00:06.418Z,70.20
2018-02-25T16:02:35.245Z,70.20
2018-02-25T16:05:04.942Z,70.30
2018-02-25T16:07:33.838Z,70.30
2018-02-25T16:10:02.713Z,69.70
2018-02-25T16:12:31.560Z,70.10
2018-02-25T16:15:01.186Z,70.80
2018-02-25T16:17:30.377Z,70.70
2018-02-25T16:20:00.215Z,71.80
2018-02-25T16:22:29.067Z,71.70
2018-02-25T16:24:59.165Z,72.50
2018-02-25T16:27:28.329Z,72.50
2018-02-25T16:29:57.180Z,72.40
2018-02-25T16:32:26.805Z,72.20
2018-02-25T16:34:55.709Z,72.10
2018-02-25T16:37:24.775Z,72.20
2018-02-25T16:39:54.439Z,71.50
2018-02-25T16:42:24.129Z,71.30
2018-02-25T16:44:52.900Z,71.20
2018-02-25T16:47:21.770Z,71.40
2018-02-25T16:49:50.794Z,72.60
2018-02-25T16:52:19.751Z,73.20
2018-02-25T16:54:48.835Z,73.20
2018-02-25T16:57:18.698Z,72.60
2018-02-25T16:59:47.584Z,72.60
2018-02-25T17:02:16.668Z,72.10
2018-02-25T17:04:45.544Z,72.90
2018-02-25T17:07:14.443Z,72.40
2018-02-25T17:09:43.663Z,72.50
2018-02-25T17:12:13.316Z,73.00
2018-02-25T17:14:42.468Z,73.00
2018-02-25T17:17:11.714Z,73.10
2018-02-25T17:19:40.631Z,72.60
2018-02-25T17:22:09.572Z,72.70
2018-02-25T17:27:13.605Z,74.20
2018-02-25T17:29:42.658Z,74.20
2018-02-25T17:32:11.929Z,74.10
2018-02-25T17:34:41.827Z,74.90
2018-02-25T17:37:10.928Z,74.90
2018-02-25T17:39:40.100Z,75.10
2018-02-25T17:42:10.292Z,75.40
2018-02-25T17:44:39.822Z,75.40
2018-02-25T17:47:09.835Z,75.50
2018-02-25T17:49:38.958Z,76.20
2018-02-25T17:52:08.301Z,76.30
2018-02-25T17:54:37.359Z,75.60
2018-02-25T17:57:07.318Z,75.10
2018-02-25T17:59:36.149Z,75.00
2018-02-25T18:02:05.096Z,75.80
2018-02-25T18:04:33.976Z,76.30
2018-02-25T18:07:02.875Z,76.40
2018-02-25T18:09:32.502Z,76.80
2018-02-25T18:12:01.399Z,77.40
2018-02-25T18:14:30.451Z,77.00
2018-02-25T18:16:59.957Z,77.40
2018-02-25T18:19:28.912Z,76.70
2018-02-25T18:21:57.836Z,77.00
2018-02-25T18:24:26.704Z,77.00
2018-02-25T18:26:55.619Z,77.00
2018-02-25T18:29:24.659Z,77.10
2018-02-25T18:31:53.458Z,77.10
2018-02-25T18:34:22.379Z,77.60
2018-02-25T18:36:52.208Z,78.50
2018-02-25T18:39:21.386Z,78.50
2018-02-25T18:41:50.449Z,79.80
2018-02-25T18:44:20.057Z,79.80
2018-02-25T18:46:49.260Z,79.80
2018-02-25T18:49:19.401Z,81.00
2018-02-25T18:51:48.676Z,80.90
2018-02-25T18:54:18.224Z,80.60
2018-02-25T18:56:47.591Z,80.90
2018-02-25T18:59:16.912Z,81.20
2018-02-25T19:01:45.957Z,80.60
2018-02-25T19:04:14.912Z,81.00
2018-02-25T19:06:48.401Z,80.80
2018-02-25T19:09:19.346Z,80.70
2018-02-25T19:11:49.275Z,80.90
2018-02-25T19:14:18.935Z,81.20
2018-02-25T19:16:47.840Z,81.20
2018-02-25T19:19:16.879Z,81.50
2018-02-25T19:21:45.978Z,81.40
2018-02-25T19:24:15.171Z,81.30
2018-02-25T19:26:44.316Z,80.90
2018-02-25T19:29:13.984Z,79.60
2018-02-25T19:31:43.073Z,79.50
2018-02-25T19:34:12.681Z,80.10
2018-02-25T19:36:58.472Z,79.60
2018-02-25T19:39:33.143Z,79.10
2018-02-25T19:42:02.714Z,79.30
2018-02-25T19:44:32.083Z,79.20
2018-02-25T19:47:02.101Z,79.70
2018-02-25T19:49:31.453Z,79.60
2018-02-25T19:52:00.924Z,80.20
2018-02-25T19:54:30.480Z,79.90
2018-02-25T19:57:00.051Z,80.20
2018-02-25T19:59:29.821Z,79.90
2018-02-25T20:01:59.159Z,80.40
2018-02-25T20:04:29.393Z,79.90
2018-02-25T20:06:58.797Z,79.90
2018-02-25T20:09:28.260Z,79.60
2018-02-25T20:11:57.527Z,80.10
2018-02-25T20:14:26.641Z,80.10
2018-02-25T20:16:55.630Z,78.80
2018-02-25T20:19:24.811Z,78.30
2018-02-25T20:21:53.846Z,78.60
2018-02-25T20:24:22.609Z,78.60
2018-02-25T20:26:51.531Z,78.60
2018-02-25T20:29:21.122Z,78.70
2018-02-25T20:31:50.216Z,78.70
2018-02-25T20:34:18.952Z,78.50
2018-02-25T20:36:47.864Z,78.10
2018-02-25T20:39:17.491Z,77.90
2018-02-25T20:41:46.292Z,77.90
2018-02-25T20:44:15.336Z,78.00
2018-02-25T20:46:44.161Z,77.60
2018-02-25T20:49:13.163Z,77.70
2018-02-25T20:51:43.406Z,77.80
2018-02-25T20:54:12.719Z,77.80
2018-02-25T20:56:41.707Z,77.80
2018-02-25T20:59:10.682Z,78.00
2018-02-25T21:01:40.466Z,77.90
2018-02-25T21:04:09.299Z,77.90
2018-02-25T21:06:38.514Z,78.00
2018-02-25T21:09:07.402Z,78.20
2018-02-25T21:11:36.217Z,79.00
2018-02-25T21:14:05.049Z,78.80
2018-02-25T21:16:34.620Z,78.50
2018-02-25T21:19:03.446Z,78.40
2018-02-25T21:21:32.162Z,78.60
2018-02-25T21:24:01.291Z,78.90
2018-02-25T21:26:30.183Z,79.20
2018-02-25T21:28:58.970Z,79.50
2018-02-25T21:31:28.035Z,79.70
2018-02-25T21:33:58.105Z,79.90
2018-02-25T21:36:26.983Z,79.80
2018-02-25T21:38:55.838Z,80.10
2018-02-25T21:41:24.991Z,80.60
2018-02-25T21:43:54.420Z,80.40
2018-02-25T21:46:23.956Z,80.80
2018-02-25T21:48:53.029Z,80.80
2018-02-25T21:51:21.993Z,80.80
2018-02-25T21:53:50.802Z,81.20
2018-02-25T21:56:25.424Z,82.00
2018-02-25T21:58:59.823Z,80.90
2018-02-25T22:01:34.278Z,81.20
2018-02-25T22:04:03.110Z,81.10
2018-02-25T22:06:31.855Z,81.10
2018-02-25T22:09:00.703Z,81.20
2018-02-25T22:11:29.531Z,81.20
2018-02-25T22:13:58.413Z,81.00
2018-02-25T22:16:27.910Z,80.90
2018-02-25T22:18:57.792Z,81.30
2018-02-25T22:21:26.636Z,81.20
2018-02-25T22:23:55.488Z,80.70
2018-02-25T22:26:25.301Z,81.90
2018-02-25T22:28:54.286Z,81.30
2018-02-25T22:31:23.566Z,81.90
2018-02-25T22:33:52.589Z,80.90
2018-02-25T22:36:21.370Z,80.90
2018-02-25T22:38:50.177Z,81.20
2018-02-25T22:41:19.027Z,80.90
2018-02-25T22:43:48.660Z,80.40
2018-02-25T22:46:18.677Z,80.10
2018-02-25T22:48:48.374Z,80.80
2018-02-25T22:51:18.013Z,81.00
2018-02-25T22:53:54.296Z,80.90
2018-02-25T22:56:23.665Z,80.90
2018-02-25T22:58:53.426Z,81.00
2018-02-25T23:01:22.411Z,81.00
2018-02-25T23:03:51.261Z,80.90
2018-02-25T23:06:21.109Z,80.90
2018-02-25T23:08:50.791Z,80.90
2018-02-25T23:11:20.432Z,80.90
2018-02-25T23:13:49.198Z,80.90
2018-02-25T23:16:18.164Z,81.10
2018-02-25T23:18:47.101Z,81.00
2018-02-25T23:21:16.044Z,81.20
2018-02-25T23:23:44.988Z,81.50
2018-02-25T23:26:13.813Z,81.40
2018-02-25T23:28:42.793Z,81.60
2018-02-25T23:31:11.836Z,81.80
2018-02-25T23:33:41.637Z,82.30
2018-02-25T23:36:10.648Z,82.20
2018-02-25T23:38:39.617Z,82.30
2018-02-25T23:41:08.640Z,82.60
2018-02-25T23:43:37.825Z,82.70
2018-02-25T23:46:06.770Z,82.60
2018-02-25T23:48:36.333Z,82.80
2018-02-25T23:51:05.192Z,82.60
2018-02-25T23:53:34.130Z,82.90
2018-02-25T23:56:03.018Z,83.00
2018-02-25T23:58:32.901Z,82.90
